sensor_id;sensor_type;location;lat;lon;timestamp;pressure;altitude;pressure_sealevel;temperature;humidity
19236;BME280;9752;54.270;12.470;2023-12-20T00:04:43;101889.13;;;5.35;100.00
19236;BME280;9752;54.270;12.470;2023-12-20T00:09:46;101880.53;;;5.25;100.00
19236;BME280;9752;54.270;12.470;2023-12-20T00:14:48;101866.56;;;5.06;100.00
19236;BME280;9752;54.270;12.470;2023-12-20T00:19:49;101857.34;;;4.91;100.00
19236;BME280;9752;54.270;12.470;2023-12-20T00:24:52;101840.06;;;4.72;100.00
19236;BME280;9752;54.270;12.470;2023-12-20T00:29:54;101835.06;;;4.56;100.00
19236;BME280;9752;54.270;12.470;2023-12-20T00:34:55;101828.81;;;4.45;100.00
19236;BME280;9752;54.270;12.470;2023-12-20T00:39:59;101815.06;;;4.36;100.00
19236;BME280;9752;54.270;12.470;2023-12-20T00:45:00;101831.97;;;4.25;100.00
19236;BME280;9752;54.270;12.470;2023-12-20T00:50:03;101833.75;;;4.18;100.00
19236;BME280;9752;54.270;12.470;2023-12-20T00:55:06;101855.84;;;4.33;100.00
19236;BME280;9752;54.270;12.470;2023-12-20T01:00:09;101875.22;;;4.38;100.00
19236;BME280;9752;54.270;12.470;2023-12-20T01:05:12;101881.56;;;4.42;100.00
19236;BME280;9752;54.270;12.470;2023-12-20T01:10:15;101887.00;;;4.45;100.00
19236;BME280;9752;54.270;12.470;2023-12-20T01:15:17;101889.75;;;4.46;100.00
19236;BME280;9752;54.270;12.470;2023-12-20T01:20:19;101896.59;;;4.63;100.00
19236;BME280;9752;54.270;12.470;2023-12-20T01:25:22;101892.25;;;4.80;100.00
19236;BME280;9752;54.270;12.470;2023-12-20T01:30:24;101892.25;;;4.80;100.00
19236;BME280;9752;54.270;12.470;2023-12-20T01:35:25;101884.69;;;4.81;100.00
19236;BME280;9752;54.270;12.470;2023-12-20T01:40:28;101867.63;;;4.82;100.00
19236;BME280;9752;54.270;12.470;2023-12-20T01:45:30;101857.75;;;4.78;100.00
19236;BME280;9752;54.270;12.470;2023-12-20T01:50:34;101849.16;;;4.77;100.00
19236;BME280;9752;54.270;12.470;2023-12-20T01:55:39;101836.00;;;4.83;100.00
19236;BME280;9752;54.270;12.470;2023-12-20T02:00:42;101821.34;;;4.73;100.00
19236;BME280;9752;54.270;12.470;2023-12-20T02:05:44;101803.97;;;4.71;100.00
19236;BME280;9752;54.270;12.470;2023-12-20T02:10:48;101787.00;;;4.64;100.00
19236;BME280;9752;54.270;12.470;2023-12-20T02:15:50;101782.63;;;4.72;100.00
19236;BME280;9752;54.270;12.470;2023-12-20T02:20:51;101771.88;;;4.76;100.00
19236;BME280;9752;54.270;12.470;2023-12-20T02:25:55;101760.56;;;4.82;100.00
19236;BME280;9752;54.270;12.470;2023-12-20T02:30:56;101754.66;;;4.92;100.00
19236;BME280;9752;54.270;12.470;2023-12-20T02:35:58;101743.00;;;4.87;100.00
19236;BME280;9752;54.270;12.470;2023-12-20T02:41:01;101721.72;;;4.88;100.00
19236;BME280;9752;54.270;12.470;2023-12-20T02:46:03;101705.94;;;5.02;100.00
19236;BME280;9752;54.270;12.470;2023-12-20T02:51:05;101689.59;;;5.11;100.00
19236;BME280;9752;54.270;12.470;2023-12-20T02:56:08;101675.69;;;5.08;100.00
19236;BME280;9752;54.270;12.470;2023-12-20T03:01:10;101651.34;;;5.05;100.00
19236;BME280;9752;54.270;12.470;2023-12-20T03:06:16;101639.38;;;5.14;100.00
19236;BME280;9752;54.270;12.470;2023-12-20T03:11:20;101625.00;;;5.16;100.00
19236;BME280;9752;54.270;12.470;2023-12-20T03:16:22;101603.31;;;5.23;100.00
19236;BME280;9752;54.270;12.470;2023-12-20T03:21:24;101575.66;;;5.20;100.00
19236;BME280;9752;54.270;12.470;2023-12-20T03:26:27;101552.22;;;5.17;100.00
19236;BME280;9752;54.270;12.470;2023-12-20T03:31:28;101545.28;;;5.16;100.00
19236;BME280;9752;54.270;12.470;2023-12-20T03:36:30;101518.44;;;5.23;100.00
19236;BME280;9752;54.270;12.470;2023-12-20T03:41:33;101510.13;;;5.25;100.00
19236;BME280;9752;54.270;12.470;2023-12-20T03:46:35;101492.66;;;5.13;100.00
19236;BME280;9752;54.270;12.470;2023-12-20T03:51:36;101477.22;;;5.13;100.00
19236;BME280;9752;54.270;12.470;2023-12-20T03:56:41;101459.44;;;4.97;100.00
19236;BME280;9752;54.270;12.470;2023-12-20T04:01:43;101446.59;;;4.97;100.00
19236;BME280;9752;54.270;12.470;2023-12-20T04:06:45;101454.97;;;5.13;100.00
19236;BME280;9752;54.270;12.470;2023-12-20T04:11:47;101444.50;;;5.20;100.00
19236;BME280;9752;54.270;12.470;2023-12-20T04:16:49;101454.69;;;5.29;100.00
19236;BME280;9752;54.270;12.470;2023-12-20T04:21:51;101441.50;;;5.35;100.00
19236;BME280;9752;54.270;12.470;2023-12-20T04:26:54;101428.59;;;5.43;100.00
19236;BME280;9752;54.270;12.470;2023-12-20T04:31:55;101401.47;;;5.47;100.00
19236;BME280;9752;54.270;12.470;2023-12-20T04:36:57;101380.53;;;5.53;100.00
19236;BME280;9752;54.270;12.470;2023-12-20T04:42:00;101343.50;;;5.61;100.00
19236;BME280;9752;54.270;12.470;2023-12-20T04:47:02;101333.72;;;5.57;100.00
19236;BME280;9752;54.270;12.470;2023-12-20T04:52:04;101298.72;;;5.59;100.00
19236;BME280;9752;54.270;12.470;2023-12-20T04:57:08;101289.47;;;5.61;100.00
19236;BME280;9752;54.270;12.470;2023-12-20T05:02:09;101275.06;;;5.63;100.00
19236;BME280;9752;54.270;12.470;2023-12-20T05:07:11;101270.44;;;5.69;100.00
19236;BME280;9752;54.270;12.470;2023-12-20T05:12:14;101239.03;;;5.63;100.00
19236;BME280;9752;54.270;12.470;2023-12-20T05:17:15;101221.81;;;5.72;100.00
19236;BME280;9752;54.270;12.470;2023-12-20T05:22:18;101203.94;;;5.74;100.00
19236;BME280;9752;54.270;12.470;2023-12-20T05:27:21;101171.63;;;5.67;100.00
19236;BME280;9752;54.270;12.470;2023-12-20T05:32:23;101155.94;;;5.64;100.00
19236;BME280;9752;54.270;12.470;2023-12-20T05:37:24;101134.69;;;5.66;100.00
19236;BME280;9752;54.270;12.470;2023-12-20T05:42:27;101117.09;;;5.71;100.00
19236;BME280;9752;54.270;12.470;2023-12-20T05:47:29;101105.25;;;5.73;100.00
19236;BME280;9752;54.270;12.470;2023-12-20T05:52:30;101090.03;;;5.76;100.00
19236;BME280;9752;54.270;12.470;2023-12-20T05:57:34;101067.25;;;5.71;100.00
19236;BME280;9752;54.270;12.470;2023-12-20T06:02:36;101049.25;;;5.71;100.00
19236;BME280;9752;54.270;12.470;2023-12-20T06:07:38;101042.44;;;5.61;100.00
19236;BME280;9752;54.270;12.470;2023-12-20T06:12:41;101042.94;;;5.36;100.00
19236;BME280;9752;54.270;12.470;2023-12-20T06:17:42;101029.56;;;5.30;100.00
19236;BME280;9752;54.270;12.470;2023-12-20T06:22:44;101024.03;;;5.15;100.00
19236;BME280;9752;54.270;12.470;2023-12-20T06:27:47;101017.94;;;4.94;100.00
19236;BME280;9752;54.270;12.470;2023-12-20T06:32:48;101008.94;;;4.89;100.00
19236;BME280;9752;54.270;12.470;2023-12-20T06:37:50;101004.34;;;4.95;100.00
19236;BME280;9752;54.270;12.470;2023-12-20T06:42:54;100999.72;;;5.01;100.00
19236;BME280;9752;54.270;12.470;2023-12-20T06:47:55;101001.13;;;5.08;100.00
19236;BME280;9752;54.270;12.470;2023-12-20T06:52:57;100986.09;;;5.13;100.00
19236;BME280;9752;54.270;12.470;2023-12-20T06:58:00;100984.28;;;5.12;100.00
19236;BME280;9752;54.270;12.470;2023-12-20T07:03:02;101009.47;;;5.16;100.00
19236;BME280;9752;54.270;12.470;2023-12-20T07:08:05;101009.63;;;5.07;100.00
19236;BME280;9752;54.270;12.470;2023-12-20T07:13:08;101022.06;;;5.02;100.00
19236;BME280;9752;54.270;12.470;2023-12-20T07:18:09;101036.47;;;5.00;100.00
19236;BME280;9752;54.270;12.470;2023-12-20T07:23:11;101041.81;;;4.93;100.00
19236;BME280;9752;54.270;12.470;2023-12-20T07:28:14;101037.56;;;4.83;100.00
19236;BME280;9752;54.270;12.470;2023-12-20T07:33:16;101038.34;;;4.82;100.00
19236;BME280;9752;54.270;12.470;2023-12-20T07:38:18;101051.34;;;4.84;100.00
19236;BME280;9752;54.270;12.470;2023-12-20T07:43:21;101043.88;;;4.87;100.00
19236;BME280;9752;54.270;12.470;2023-12-20T07:48:22;101042.19;;;4.87;100.00
19236;BME280;9752;54.270;12.470;2023-12-20T07:53:24;101061.78;;;4.96;100.00
19236;BME280;9752;54.270;12.470;2023-12-20T07:58:27;101058.59;;;5.08;100.00
19236;BME280;9752;54.270;12.470;2023-12-20T08:03:30;101052.16;;;5.14;100.00
19236;BME280;9752;54.270;12.470;2023-12-20T08:08:31;101067.34;;;5.11;100.00
19236;BME280;9752;54.270;12.470;2023-12-20T08:13:34;101072.22;;;5.07;100.00
19236;BME280;9752;54.270;12.470;2023-12-20T08:18:36;101070.16;;;5.03;100.00
19236;BME280;9752;54.270;12.470;2023-12-20T08:23:38;101059.09;;;5.04;100.00
19236;BME280;9752;54.270;12.470;2023-12-20T08:28:41;101048.94;;;5.06;100.00
19236;BME280;9752;54.270;12.470;2023-12-20T08:33:43;101043.41;;;5.12;100.00
19236;BME280;9752;54.270;12.470;2023-12-20T08:38:45;101051.78;;;5.09;100.00
19236;BME280;9752;54.270;12.470;2023-12-20T08:43:49;101042.38;;;4.99;100.00
19236;BME280;9752;54.270;12.470;2023-12-20T08:48:51;101038.50;;;4.94;100.00
19236;BME280;9752;54.270;12.470;2023-12-20T08:53:52;101029.06;;;4.74;100.00
19236;BME280;9752;54.270;12.470;2023-12-20T08:58:56;101021.47;;;4.76;100.00
19236;BME280;9752;54.270;12.470;2023-12-20T09:03:57;101020.72;;;4.77;100.00
19236;BME280;9752;54.270;12.470;2023-12-20T09:08:59;101018.16;;;4.77;100.00
19236;BME280;9752;54.270;12.470;2023-12-20T09:14:02;101009.19;;;4.82;100.00
19236;BME280;9752;54.270;12.470;2023-12-20T09:19:04;101007.53;;;4.93;100.00
19236;BME280;9752;54.270;12.470;2023-12-20T09:24:06;100996.22;;;4.91;100.00
19236;BME280;9752;54.270;12.470;2023-12-20T09:29:10;100989.91;;;4.87;100.00
19236;BME280;9752;54.270;12.470;2023-12-20T09:34:16;100971.94;;;4.97;100.00
19236;BME280;9752;54.270;12.470;2023-12-20T09:39:19;100958.34;;;5.08;100.00
19236;BME280;9752;54.270;12.470;2023-12-20T09:44:22;100956.66;;;5.40;100.00
19236;BME280;9752;54.270;12.470;2023-12-20T09:49:25;100951.06;;;5.86;100.00
19236;BME280;9752;54.270;12.470;2023-12-20T09:54:29;100934.84;;;5.98;100.00
19236;BME280;9752;54.270;12.470;2023-12-20T09:59:32;100907.41;;;5.88;100.00
19236;BME280;9752;54.270;12.470;2023-12-20T10:04:34;100871.88;;;5.84;100.00
19236;BME280;9752;54.270;12.470;2023-12-20T10:09:37;100848.03;;;5.64;100.00
19236;BME280;9752;54.270;12.470;2023-12-20T10:14:40;100824.66;;;5.51;100.00
19236;BME280;9752;54.270;12.470;2023-12-20T10:19:43;100810.78;;;5.49;100.00
19236;BME280;9752;54.270;12.470;2023-12-20T10:24:45;100802.97;;;5.37;100.00
19236;BME280;9752;54.270;12.470;2023-12-20T10:29:48;100781.41;;;5.25;100.00
19236;BME280;9752;54.270;12.470;2023-12-20T10:34:51;100775.22;;;5.23;100.00
19236;BME280;9752;54.270;12.470;2023-12-20T10:39:54;100762.41;;;5.13;100.00
19236;BME280;9752;54.270;12.470;2023-12-20T10:44:59;100759.97;;;5.04;100.00
19236;BME280;9752;54.270;12.470;2023-12-20T10:50:01;100763.72;;;5.07;100.00
19236;BME280;9752;54.270;12.470;2023-12-20T10:55:07;100772.69;;;5.13;100.00
19236;BME280;9752;54.270;12.470;2023-12-20T11:00:14;100748.94;;;5.05;100.00
19236;BME280;9752;54.270;12.470;2023-12-20T11:05:24;100766.91;;;5.15;100.00
19236;BME280;9752;54.270;12.470;2023-12-20T11:10:33;100779.63;;;5.14;100.00
19236;BME280;9752;54.270;12.470;2023-12-20T11:15:39;100782.31;;;5.15;100.00
19236;BME280;9752;54.270;12.470;2023-12-20T11:20:42;100825.41;;;5.07;100.00
19236;BME280;9752;54.270;12.470;2023-12-20T11:25:47;100810.41;;;4.92;100.00
19236;BME280;9752;54.270;12.470;2023-12-20T11:30:52;100810.00;;;4.97;100.00
19236;BME280;9752;54.270;12.470;2023-12-20T11:35:55;100803.78;;;5.16;100.00
19236;BME280;9752;54.270;12.470;2023-12-20T11:40:59;100804.34;;;5.01;100.00
19236;BME280;9752;54.270;12.470;2023-12-20T11:46:07;100772.06;;;5.05;100.00
19236;BME280;9752;54.270;12.470;2023-12-20T11:51:09;100763.56;;;5.16;100.00
19236;BME280;9752;54.270;12.470;2023-12-20T11:56:11;100771.91;;;5.24;100.00
19236;BME280;9752;54.270;12.470;2023-12-20T12:01:15;100758.50;;;5.28;100.00
19236;BME280;9752;54.270;12.470;2023-12-20T12:06:17;100718.66;;;5.23;100.00
19236;BME280;9752;54.270;12.470;2023-12-20T12:11:18;100733.16;;;5.33;100.00
19236;BME280;9752;54.270;12.470;2023-12-20T12:16:21;100707.84;;;5.27;100.00
19236;BME280;9752;54.270;12.470;2023-12-20T12:21:24;100694.41;;;5.41;100.00
19236;BME280;9752;54.270;12.470;2023-12-20T12:26:30;100685.38;;;5.24;100.00
19236;BME280;9752;54.270;12.470;2023-12-20T12:31:33;100647.97;;;5.18;100.00
19236;BME280;9752;54.270;12.470;2023-12-20T12:36:35;100632.06;;;5.12;100.00
19236;BME280;9752;54.270;12.470;2023-12-20T12:41:37;100544.44;;;5.08;100.00
19236;BME280;9752;54.270;12.470;2023-12-20T12:46:40;100540.81;;;5.06;100.00
19236;BME280;9752;54.270;12.470;2023-12-20T12:51:42;100550.41;;;4.97;100.00
19236;BME280;9752;54.270;12.470;2023-12-20T12:56:44;100537.72;;;5.11;100.00
19236;BME280;9752;54.270;12.470;2023-12-20T13:01:49;100513.25;;;5.16;100.00
19236;BME280;9752;54.270;12.470;2023-12-20T13:06:50;100499.47;;;5.03;100.00
19236;BME280;9752;54.270;12.470;2023-12-20T13:11:52;100490.03;;;5.14;100.00
19236;BME280;9752;54.270;12.470;2023-12-20T13:16:55;100496.25;;;5.18;100.00
19236;BME280;9752;54.270;12.470;2023-12-20T13:21:57;100491.50;;;5.22;100.00
19236;BME280;9752;54.270;12.470;2023-12-20T13:26:59;100491.06;;;5.28;100.00
19236;BME280;9752;54.270;12.470;2023-12-20T13:32:03;100492.41;;;5.35;100.00
19236;BME280;9752;54.270;12.470;2023-12-20T13:37:05;100483.41;;;5.18;100.00
19236;BME280;9752;54.270;12.470;2023-12-20T13:42:06;100480.31;;;5.22;100.00
19236;BME280;9752;54.270;12.470;2023-12-20T13:47:09;100497.09;;;5.28;100.00
19236;BME280;9752;54.270;12.470;2023-12-20T13:52:11;100490.19;;;5.27;100.00
19236;BME280;9752;54.270;12.470;2023-12-20T13:57:13;100496.00;;;5.37;100.00
19236;BME280;9752;54.270;12.470;2023-12-20T14:02:16;100489.75;;;5.33;100.00
19236;BME280;9752;54.270;12.470;2023-12-20T14:07:17;100482.78;;;5.20;100.00
19236;BME280;9752;54.270;12.470;2023-12-20T14:12:19;100478.97;;;5.27;100.00
19236;BME280;9752;54.270;12.470;2023-12-20T14:17:23;100485.22;;;5.19;100.00
19236;BME280;9752;54.270;12.470;2023-12-20T14:22:24;100458.50;;;5.17;100.00
19236;BME280;9752;54.270;12.470;2023-12-20T14:27:26;100464.38;;;5.04;100.00
19236;BME280;9752;54.270;12.470;2023-12-20T14:32:29;100469.72;;;4.95;100.00
19236;BME280;9752;54.270;12.470;2023-12-20T14:37:31;100482.31;;;4.92;100.00
19236;BME280;9752;54.270;12.470;2023-12-20T14:42:32;100467.41;;;4.76;100.00
19236;BME280;9752;54.270;12.470;2023-12-20T14:47:36;100470.00;;;4.88;100.00
19236;BME280;9752;54.270;12.470;2023-12-20T14:52:38;100483.50;;;4.85;100.00
19236;BME280;9752;54.270;12.470;2023-12-20T14:57:40;100470.78;;;4.87;100.00
19236;BME280;9752;54.270;12.470;2023-12-20T15:02:43;100480.84;;;4.84;100.00
19236;BME280;9752;54.270;12.470;2023-12-20T15:07:45;100467.19;;;4.85;100.00
19236;BME280;9752;54.270;12.470;2023-12-20T15:12:47;100466.09;;;4.93;100.00
19236;BME280;9752;54.270;12.470;2023-12-20T15:17:50;100449.81;;;4.93;100.00
19236;BME280;9752;54.270;12.470;2023-12-20T15:22:52;100451.06;;;4.98;100.00
19236;BME280;9752;54.270;12.470;2023-12-20T15:27:55;100458.66;;;4.96;100.00
19236;BME280;9752;54.270;12.470;2023-12-20T15:32:58;100436.19;;;4.94;100.00
19236;BME280;9752;54.270;12.470;2023-12-20T15:38:00;100439.78;;;4.96;100.00
19236;BME280;9752;54.270;12.470;2023-12-20T15:43:03;100438.44;;;5.01;100.00
19236;BME280;9752;54.270;12.470;2023-12-20T15:48:06;100431.69;;;4.91;100.00
19236;BME280;9752;54.270;12.470;2023-12-20T15:53:10;100413.94;;;4.94;100.00
19236;BME280;9752;54.270;12.470;2023-12-20T15:58:11;100426.63;;;5.03;100.00
19236;BME280;9752;54.270;12.470;2023-12-20T16:03:14;100422.34;;;5.03;100.00
19236;BME280;9752;54.270;12.470;2023-12-20T16:08:16;100425.81;;;5.04;100.00
19236;BME280;9752;54.270;12.470;2023-12-20T16:13:18;100425.22;;;4.96;100.00
19236;BME280;9752;54.270;12.470;2023-12-20T16:18:21;100408.25;;;4.98;100.00
19236;BME280;9752;54.270;12.470;2023-12-20T16:23:23;100413.84;;;5.04;100.00
19236;BME280;9752;54.270;12.470;2023-12-20T16:28:25;100422.94;;;5.11;100.00
19236;BME280;9752;54.270;12.470;2023-12-20T16:33:28;100418.38;;;5.19;100.00
19236;BME280;9752;54.270;12.470;2023-12-20T16:38:30;100432.34;;;5.22;100.00
19236;BME280;9752;54.270;12.470;2023-12-20T16:43:31;100424.53;;;5.21;100.00
19236;BME280;9752;54.270;12.470;2023-12-20T16:48:34;100455.53;;;5.00;100.00
19236;BME280;9752;54.270;12.470;2023-12-20T16:53:36;100448.06;;;5.03;100.00
19236;BME280;9752;54.270;12.470;2023-12-20T16:58:38;100440.56;;;5.06;100.00
19236;BME280;9752;54.270;12.470;2023-12-20T17:03:41;100441.75;;;4.88;100.00
19236;BME280;9752;54.270;12.470;2023-12-20T17:08:43;100442.81;;;4.80;100.00
19236;BME280;9752;54.270;12.470;2023-12-20T17:13:44;100446.44;;;4.82;100.00
19236;BME280;9752;54.270;12.470;2023-12-20T17:18:47;100437.16;;;4.62;100.00
19236;BME280;9752;54.270;12.470;2023-12-20T17:23:49;100440.81;;;4.54;100.00
19236;BME280;9752;54.270;12.470;2023-12-20T17:28:51;100442.28;;;4.62;100.00
19236;BME280;9752;54.270;12.470;2023-12-20T17:33:54;100432.97;;;4.52;100.00
19236;BME280;9752;54.270;12.470;2023-12-20T17:38:56;100436.50;;;4.64;100.00
19236;BME280;9752;54.270;12.470;2023-12-20T17:43:57;100435.31;;;4.71;100.00
19236;BME280;9752;54.270;12.470;2023-12-20T17:49:00;100431.66;;;4.79;100.00
19236;BME280;9752;54.270;12.470;2023-12-20T17:54:02;100433.34;;;4.79;100.00
19236;BME280;9752;54.270;12.470;2023-12-20T17:59:04;100416.81;;;4.87;100.00
19236;BME280;9752;54.270;12.470;2023-12-20T18:04:07;100407.97;;;4.83;100.00
19236;BME280;9752;54.270;12.470;2023-12-20T18:09:09;100420.41;;;4.89;100.00
19236;BME280;9752;54.270;12.470;2023-12-20T18:14:11;100409.03;;;4.97;100.00
19236;BME280;9752;54.270;12.470;2023-12-20T18:19:14;100403.50;;;4.81;100.00
19236;BME280;9752;54.270;12.470;2023-12-20T18:24:17;100425.91;;;4.94;100.00
19236;BME280;9752;54.270;12.470;2023-12-20T18:29:19;100414.19;;;4.97;100.00
19236;BME280;9752;54.270;12.470;2023-12-20T18:34:22;100421.06;;;4.86;100.00
19236;BME280;9752;54.270;12.470;2023-12-20T18:39:24;100415.81;;;4.85;100.00
19236;BME280;9752;54.270;12.470;2023-12-20T18:44:26;100420.91;;;4.73;100.00
19236;BME280;9752;54.270;12.470;2023-12-20T18:49:29;100417.28;;;4.93;100.00
19236;BME280;9752;54.270;12.470;2023-12-20T18:54:30;100411.97;;;4.80;100.00
19236;BME280;9752;54.270;12.470;2023-12-20T18:59:32;100407.34;;;4.86;100.00
19236;BME280;9752;54.270;12.470;2023-12-20T19:04:35;100421.25;;;4.78;100.00
19236;BME280;9752;54.270;12.470;2023-12-20T19:09:36;100413.06;;;4.72;100.00
19236;BME280;9752;54.270;12.470;2023-12-20T19:14:38;100393.78;;;4.55;100.00
19236;BME280;9752;54.270;12.470;2023-12-20T19:19:41;100397.03;;;4.52;100.00
19236;BME280;9752;54.270;12.470;2023-12-20T19:24:43;100406.91;;;4.47;100.00
19236;BME280;9752;54.270;12.470;2023-12-20T19:29:45;100410.88;;;4.54;100.00
19236;BME280;9752;54.270;12.470;2023-12-20T19:34:47;100407.63;;;4.57;100.00
19236;BME280;9752;54.270;12.470;2023-12-20T19:39:50;100418.81;;;4.79;100.00
19236;BME280;9752;54.270;12.470;2023-12-20T19:44:52;100410.97;;;4.78;100.00
19236;BME280;9752;54.270;12.470;2023-12-20T19:49:55;100411.88;;;4.78;100.00
19236;BME280;9752;54.270;12.470;2023-12-20T19:54:57;100414.47;;;4.78;100.00
19236;BME280;9752;54.270;12.470;2023-12-20T19:59:59;100414.38;;;4.88;100.00
19236;BME280;9752;54.270;12.470;2023-12-20T20:05:03;100399.94;;;4.79;100.00
19236;BME280;9752;54.270;12.470;2023-12-20T20:10:07;100392.88;;;4.76;100.00
19236;BME280;9752;54.270;12.470;2023-12-20T20:15:09;100391.41;;;4.80;100.00
19236;BME280;9752;54.270;12.470;2023-12-20T20:20:12;100383.19;;;4.84;100.00
19236;BME280;9752;54.270;12.470;2023-12-20T20:25:14;100377.63;;;4.89;100.00
19236;BME280;9752;54.270;12.470;2023-12-20T20:30:15;100359.22;;;4.95;100.00
19236;BME280;9752;54.270;12.470;2023-12-20T20:35:18;100346.88;;;4.91;100.00
19236;BME280;9752;54.270;12.470;2023-12-20T20:40:20;100332.31;;;4.80;100.00
19236;BME280;9752;54.270;12.470;2023-12-20T20:45:22;100334.13;;;4.81;100.00
19236;BME280;9752;54.270;12.470;2023-12-20T20:50:25;100328.84;;;4.67;100.00
19236;BME280;9752;54.270;12.470;2023-12-20T20:55:28;100330.97;;;4.61;100.00
19236;BME280;9752;54.270;12.470;2023-12-20T21:00:29;100334.84;;;4.56;100.00
19236;BME280;9752;54.270;12.470;2023-12-20T21:05:33;100360.78;;;4.59;100.00
19236;BME280;9752;54.270;12.470;2023-12-20T21:10:35;100356.31;;;4.68;100.00
19236;BME280;9752;54.270;12.470;2023-12-20T21:15:37;100350.16;;;4.66;100.00
19236;BME280;9752;54.270;12.470;2023-12-20T21:20:40;100350.97;;;4.65;100.00
19236;BME280;9752;54.270;12.470;2023-12-20T21:25:41;100338.88;;;4.64;100.00
19236;BME280;9752;54.270;12.470;2023-12-20T21:30:43;100338.66;;;4.61;100.00
19236;BME280;9752;54.270;12.470;2023-12-20T21:35:46;100333.28;;;4.58;100.00
19236;BME280;9752;54.270;12.470;2023-12-20T21:40:47;100332.81;;;4.52;100.00
19236;BME280;9752;54.270;12.470;2023-12-20T21:45:49;100325.88;;;4.51;100.00
19236;BME280;9752;54.270;12.470;2023-12-20T21:50:52;100323.31;;;4.51;100.00
19236;BME280;9752;54.270;12.470;2023-12-20T21:55:54;100320.53;;;4.48;100.00
19236;BME280;9752;54.270;12.470;2023-12-20T22:00:55;100306.25;;;4.52;100.00
19236;BME280;9752;54.270;12.470;2023-12-20T22:05:59;100301.13;;;4.52;100.00
19236;BME280;9752;54.270;12.470;2023-12-20T22:11:01;100304.44;;;4.50;100.00
19236;BME280;9752;54.270;12.470;2023-12-20T22:16:04;100304.88;;;4.45;100.00
19236;BME280;9752;54.270;12.470;2023-12-20T22:21:07;100303.53;;;4.38;100.00
19236;BME280;9752;54.270;12.470;2023-12-20T22:26:10;100302.47;;;4.36;100.00
19236;BME280;9752;54.270;12.470;2023-12-20T22:31:12;100303.41;;;4.37;100.00
19236;BME280;9752;54.270;12.470;2023-12-20T22:36:15;100297.91;;;4.32;100.00
19236;BME280;9752;54.270;12.470;2023-12-20T22:41:18;100293.19;;;4.26;100.00
19236;BME280;9752;54.270;12.470;2023-12-20T22:46:20;100301.44;;;4.22;100.00
19236;BME280;9752;54.270;12.470;2023-12-20T22:51:24;100291.97;;;4.21;100.00
19236;BME280;9752;54.270;12.470;2023-12-20T22:56:25;100278.63;;;4.15;100.00
19236;BME280;9752;54.270;12.470;2023-12-20T23:01:27;100275.03;;;4.13;100.00
19236;BME280;9752;54.270;12.470;2023-12-20T23:12:48;100258.63;;;4.11;100.00
19236;BME280;9752;54.270;12.470;2023-12-20T23:17:50;100249.75;;;4.18;100.00
19236;BME280;9752;54.270;12.470;2023-12-20T23:22:53;100240.84;;;4.24;100.00
19236;BME280;9752;54.270;12.470;2023-12-20T23:27:56;100370.19;;;4.26;100.00
19236;BME280;9752;54.270;12.470;2023-12-20T23:32:58;100371.00;;;4.25;100.00
19236;BME280;9752;54.270;12.470;2023-12-20T23:38:00;100352.22;;;4.26;100.00
19236;BME280;9752;54.270;12.470;2023-12-20T23:43:03;100348.00;;;4.27;100.00
19236;BME280;9752;54.270;12.470;2023-12-20T23:48:05;100350.78;;;4.30;100.00
19236;BME280;9752;54.270;12.470;2023-12-20T23:53:07;100342.22;;;4.29;100.00
19236;BME280;9752;54.270;12.470;2023-12-20T23:58:10;100335.06;;;4.25;100.00
